RGE weather

Rancho Grande Airport
Carbo, Sonora, Mexico

Public forecast

Using degrees Celsius for public forecast. Weather courtesy of forecast.io.

METAR (pilot weather report)

Closest report is General Ignacio P. Garcia International Airport, 45.0 nm (83.3 km) SSE. Retrieved 2019/05/20 08:40 UTC (0 seconds ago):

MMHO 200840Z 00000KT 10SM SCT090 SCT200 20/11 A2982 RMK SLP092 57009 966 8/038 HZY

TAF (pilot weather forecast)

Closest forecast is General Ignacio P. Garcia International Airport, 45.0 nm (83.3 km) SSE. Retrieved 2019/05/20 06:50 UTC (2 hours ago):

TAF MMHO 200443Z 2006/2106 16006KT P6SM SCT090 BKN200 FM201800 23012KT P6SM BKN090 BKN220 BECMG 2103/2105 33004KT